createdAt,value
2019-02-12T00:02:17.704Z,7.64
2019-02-12T00:04:52.027Z,7.65
2019-02-12T00:07:22.728Z,7.69
2019-02-12T00:09:54.376Z,7.65
2019-02-12T00:12:25.986Z,7.67
2019-02-12T00:14:57.604Z,7.70
2019-02-12T00:17:29.228Z,7.66
2019-02-12T00:20:00.748Z,7.63
2019-02-12T00:22:33.725Z,7.65
2019-02-12T00:25:06.641Z,7.64
2019-02-12T00:27:38.271Z,7.62
2019-02-12T00:30:10.200Z,7.63
2019-02-12T00:32:41.798Z,7.59
2019-02-12T00:35:15.859Z,7.66
2019-02-12T00:37:50.349Z,7.69
2019-02-12T00:40:21.841Z,7.64
2019-02-12T00:42:53.447Z,7.65
2019-02-12T00:45:25.076Z,7.70
2019-02-12T00:47:56.577Z,7.68
2019-02-12T00:50:28.011Z,7.65
2019-02-12T00:52:59.547Z,7.66
2019-02-12T00:55:31.127Z,7.82
2019-02-12T00:58:02.767Z,7.91
2019-02-12T01:00:34.383Z,7.98
2019-02-12T01:03:08.954Z,8.00
2019-02-12T01:05:40.602Z,8.05
2019-02-12T01:08:14.627Z,8.08
2019-02-12T01:10:46.211Z,8.04
2019-02-12T01:13:19.799Z,8.06
2019-02-12T01:15:51.929Z,8.13
2019-02-12T01:18:23.600Z,8.15
2019-02-12T01:20:55.291Z,8.22
2019-02-12T01:23:27.037Z,8.30
2019-02-12T01:25:58.789Z,8.36
2019-02-12T01:28:30.367Z,8.48
2019-02-12T01:31:01.987Z,8.52
2019-02-12T01:33:33.536Z,8.53
2019-02-12T01:36:05.223Z,8.53
2019-02-12T01:38:36.914Z,8.54
2019-02-12T01:41:08.575Z,8.60
2019-02-12T01:43:40.280Z,8.65
2019-02-12T01:46:11.797Z,8.64
2019-02-12T01:48:45.520Z,8.63
2019-02-12T01:51:17.076Z,8.60
2019-02-12T01:53:48.502Z,8.51
2019-02-12T01:56:20.174Z,8.47
2019-02-12T01:58:51.805Z,8.45
2019-02-12T02:01:23.299Z,8.39
2019-02-12T02:03:54.954Z,8.33
2019-02-12T02:06:26.593Z,8.29
2019-02-12T02:08:58.297Z,8.30
2019-02-12T02:11:29.857Z,8.22
2019-02-12T02:14:01.389Z,8.20
2019-02-12T02:16:35.623Z,8.16
2019-02-12T02:19:07.179Z,8.13
2019-02-12T02:21:44.162Z,8.11
2019-02-12T02:24:12.239Z,8.07
2019-02-12T02:26:43.755Z,8.01
2019-02-12T02:29:15.303Z,7.99
2019-02-12T02:31:47.065Z,7.98
2019-02-12T02:34:18.608Z,7.93
2019-02-12T02:36:50.071Z,7.89
2019-02-12T02:39:24.770Z,7.87
2019-02-12T02:41:56.489Z,7.88
2019-02-12T02:44:29.410Z,7.82
2019-02-12T02:47:03.581Z,7.82
2019-02-12T02:49:35.261Z,7.78
2019-02-12T02:52:08.163Z,7.70
2019-02-12T02:54:41.040Z,7.69
2019-02-12T02:57:12.692Z,7.72
2019-02-12T02:59:46.490Z,7.76
2019-02-12T03:02:18.166Z,7.73
2019-02-12T03:04:52.957Z,7.76
2019-02-12T03:07:24.648Z,7.73
2019-02-12T03:09:56.345Z,7.75
2019-02-12T03:12:28.036Z,7.74
2019-02-12T03:14:59.495Z,7.78
2019-02-12T03:17:31.167Z,7.85
2019-02-12T03:20:02.793Z,7.92
2019-02-12T03:22:34.970Z,8.05
2019-02-12T03:25:06.852Z,8.11
2019-02-12T03:27:38.566Z,8.19
2019-02-12T03:30:11.157Z,8.23
2019-02-12T03:32:42.946Z,8.29
2019-02-12T03:35:14.821Z,8.31
2019-02-12T03:37:46.512Z,8.33
2019-02-12T03:40:18.230Z,8.37
2019-02-12T03:42:49.907Z,8.45
2019-02-12T03:45:21.522Z,8.50
2019-02-12T03:47:53.225Z,8.50
2019-02-12T03:50:24.959Z,8.49
2019-02-12T03:52:56.719Z,8.48
2019-02-12T03:55:28.312Z,8.53
2019-02-12T03:58:01.209Z,8.62
2019-02-12T04:00:32.902Z,8.63
2019-02-12T04:03:08.957Z,8.60
2019-02-12T04:05:41.234Z,8.62
2019-02-12T04:08:12.903Z,8.58
2019-02-12T04:10:44.608Z,8.62
2019-02-12T04:13:16.361Z,8.61
2019-02-12T04:15:48.049Z,8.60
2019-02-12T04:18:19.670Z,8.58
2019-02-12T04:20:51.331Z,8.55
2019-02-12T04:23:23.041Z,8.53
2019-02-12T04:25:54.759Z,8.57
2019-02-12T04:28:26.218Z,8.55
2019-02-12T04:30:57.838Z,8.60
2019-02-12T04:33:29.356Z,8.60
2019-02-12T04:36:00.876Z,8.70
2019-02-12T04:38:32.547Z,8.76
2019-02-12T04:41:04.034Z,8.77
2019-02-12T04:43:35.632Z,8.79
2019-02-12T04:46:07.168Z,8.77
2019-02-12T04:48:38.638Z,8.84
2019-02-12T04:51:10.274Z,8.84
2019-02-12T04:53:41.919Z,8.83
2019-02-12T04:56:13.379Z,8.81
2019-02-12T04:58:44.917Z,8.82
2019-02-12T05:01:17.889Z,8.88
2019-02-12T05:03:49.587Z,8.89
2019-02-12T05:06:21.213Z,8.97
2019-02-12T05:09:12.904Z,8.98
2019-02-12T05:11:47.268Z,8.99
2019-02-12T05:14:18.944Z,9.02
2019-02-12T05:16:50.425Z,9.04
2019-02-12T05:19:23.261Z,9.05
2019-02-12T05:21:54.773Z,8.94
2019-02-12T05:24:26.638Z,8.77
2019-02-12T05:26:58.257Z,8.49
2019-02-12T05:29:29.941Z,8.23
2019-02-12T05:32:01.474Z,8.04
2019-02-12T05:34:33.104Z,7.91
2019-02-12T05:37:04.768Z,7.75
2019-02-12T05:39:36.302Z,7.66
2019-02-12T05:42:07.790Z,7.59
2019-02-12T05:44:39.511Z,7.47
2019-02-12T05:47:12.709Z,7.42
2019-02-12T05:49:44.356Z,7.29
2019-02-12T05:52:16.146Z,7.21
2019-02-12T05:54:47.806Z,7.12
2019-02-12T05:57:19.409Z,7.13
2019-02-12T05:59:51.041Z,7.09
2019-02-12T06:02:22.570Z,7.03
2019-02-12T06:04:54.203Z,7.01
2019-02-12T06:07:25.775Z,6.85
2019-02-12T06:09:57.400Z,6.76
2019-02-12T06:12:28.985Z,6.74
2019-02-12T06:15:00.639Z,6.66
2019-02-12T06:17:32.177Z,6.60
2019-02-12T06:20:03.741Z,6.62
2019-02-12T06:22:35.332Z,6.55
2019-02-12T06:25:08.405Z,6.49
2019-02-12T06:27:40.450Z,6.49
2019-02-12T06:30:12.220Z,6.43
2019-02-12T06:32:43.811Z,6.38
2019-02-12T06:35:15.462Z,6.39
2019-02-12T06:37:47.013Z,6.32
2019-02-12T06:40:18.812Z,6.26
2019-02-12T06:42:50.324Z,6.23
2019-02-12T06:45:21.919Z,6.16
2019-02-12T06:47:53.597Z,6.06
2019-02-12T06:50:26.409Z,5.97
2019-02-12T06:52:58.044Z,5.92
2019-02-12T06:55:29.685Z,5.83
2019-02-12T06:58:01.302Z,5.86
2019-02-12T07:00:32.813Z,5.83
2019-02-12T07:03:22.082Z,5.81
2019-02-12T07:06:06.965Z,5.78
2019-02-12T07:08:45.156Z,5.67
2019-02-12T07:11:43.523Z,5.64
2019-02-12T07:14:29.477Z,5.63
2019-02-12T07:17:40.458Z,5.57
2019-02-12T07:20:38.577Z,5.50
2019-02-12T07:23:38.482Z,5.49
2019-02-12T07:26:47.082Z,5.33
2019-02-12T07:30:03.720Z,5.11
2019-02-12T07:32:50.064Z,5.06
2019-02-12T07:36:02.149Z,5.03
2019-02-12T07:38:55.995Z,5.02
2019-02-12T07:41:59.257Z,5.13
2019-02-12T07:44:58.447Z,5.11
2019-02-12T07:48:07.857Z,5.15
2019-02-12T07:51:13.762Z,5.13
2019-02-12T07:54:28.567Z,5.00
2019-02-12T07:57:26.027Z,5.05
2019-02-12T08:00:30.633Z,5.11
2019-02-12T08:03:28.496Z,5.12
2019-02-12T08:06:31.604Z,5.10
2019-02-12T08:09:46.153Z,5.01
2019-02-12T08:13:01.843Z,4.94
2019-02-12T08:15:58.791Z,4.99
2019-02-12T08:18:57.327Z,5.03
2019-02-12T08:21:56.523Z,5.11
2019-02-12T08:24:47.340Z,5.11
2019-02-12T08:28:29.686Z,5.17
2019-02-12T08:31:53.558Z,5.08
2019-02-12T08:35:06.326Z,5.10
2019-02-12T08:38:07.489Z,5.26
2019-02-12T08:41:10.507Z,5.20
2019-02-12T08:44:05.758Z,5.16
2019-02-12T08:47:29.986Z,5.09
2019-02-12T08:50:57.380Z,4.95
2019-02-12T08:54:11.176Z,5.03
2019-02-12T08:57:00.429Z,5.00
2019-02-12T09:00:09.990Z,4.97
2019-02-12T09:03:22.002Z,4.90
2019-02-12T09:06:18.318Z,4.86
2019-02-12T09:09:31.189Z,4.88
2019-02-12T09:12:22.305Z,4.86
2019-02-12T09:15:28.204Z,4.85
2019-02-12T09:18:21.668Z,4.91
2019-02-12T09:21:11.120Z,5.02
2019-02-12T09:24:00.581Z,5.05
2019-02-12T09:27:12.483Z,5.11
2019-02-12T09:30:06.867Z,5.12
2019-02-12T09:33:19.013Z,5.16
2019-02-12T09:36:20.949Z,5.16
2019-02-12T09:39:37.684Z,5.17
2019-02-12T09:42:33.281Z,5.22
2019-02-12T09:45:27.144Z,5.36
2019-02-12T09:48:43.396Z,5.45
2019-02-12T09:51:32.813Z,5.48
2019-02-12T09:54:26.130Z,5.53
2019-02-12T09:57:26.891Z,5.59
2019-02-12T10:00:21.372Z,5.63
2019-02-12T10:03:37.948Z,5.47
2019-02-12T10:06:51.884Z,5.46
2019-02-12T10:09:44.370Z,5.33
2019-02-12T10:13:08.531Z,5.35
2019-02-12T10:16:29.120Z,5.39
2019-02-12T10:19:45.872Z,5.35
2019-02-12T10:23:02.581Z,5.29
2019-02-12T10:25:40.328Z,5.26
2019-02-12T10:28:50.866Z,5.29
2019-02-12T10:31:31.208Z,5.29
2019-02-12T10:34:02.885Z,5.33
2019-02-12T10:36:34.489Z,5.46
2019-02-12T10:39:08.801Z,5.50
2019-02-12T10:41:40.315Z,5.54
2019-02-12T10:44:13.115Z,5.62
2019-02-12T10:46:44.760Z,5.65
2019-02-12T10:49:16.537Z,5.70
2019-02-12T10:51:48.259Z,5.75
2019-02-12T10:54:27.628Z,5.75
2019-02-12T10:56:53.451Z,5.80
2019-02-12T10:59:25.118Z,5.69
2019-02-12T11:01:56.655Z,5.76
2019-02-12T11:04:28.259Z,5.68
2019-02-12T11:06:59.828Z,5.66
2019-02-12T11:09:31.426Z,5.66
2019-02-12T11:12:03.117Z,5.66
2019-02-12T11:14:36.268Z,5.65
2019-02-12T11:17:08.060Z,5.66
2019-02-12T11:19:39.765Z,5.68
2019-02-12T11:22:14.229Z,5.75
2019-02-12T11:24:45.827Z,5.73
2019-02-12T11:27:17.618Z,5.63
2019-02-12T11:29:49.321Z,5.64
2019-02-12T11:32:21.207Z,5.66
2019-02-12T11:34:52.840Z,5.63
2019-02-12T11:37:24.504Z,5.61
2019-02-12T11:39:56.092Z,5.55
2019-02-12T11:42:27.790Z,5.56
2019-02-12T11:44:59.347Z,5.56
2019-02-12T11:47:31.208Z,5.39
2019-02-12T11:50:02.794Z,5.45
2019-02-12T11:52:36.043Z,5.42
2019-02-12T11:55:08.315Z,5.36
2019-02-12T11:57:41.992Z,5.31
2019-02-12T12:00:20.623Z,5.35
2019-02-12T12:02:53.610Z,5.33
2019-02-12T12:05:25.344Z,5.28
2019-02-12T12:07:57.051Z,5.29
2019-02-12T12:10:28.668Z,5.25
2019-02-12T12:13:00.327Z,5.26
2019-02-12T12:15:31.903Z,5.25
2019-02-12T12:18:03.679Z,5.31
2019-02-12T12:20:35.396Z,5.25
2019-02-12T12:23:07.134Z,5.34
2019-02-12T12:25:38.776Z,5.36
2019-02-12T12:28:10.573Z,5.43
2019-02-12T12:30:42.335Z,5.42
2019-02-12T12:33:14.059Z,5.40
2019-02-12T12:35:45.723Z,5.43
2019-02-12T12:38:17.374Z,5.42
2019-02-12T12:40:49.067Z,5.42
2019-02-12T12:43:20.673Z,5.41
2019-02-12T12:45:52.357Z,5.38
2019-02-12T12:48:24.075Z,5.37
2019-02-12T12:50:55.777Z,5.32
2019-02-12T12:53:27.365Z,5.26
2019-02-12T12:55:59.033Z,5.31
2019-02-12T12:58:30.728Z,5.32
2019-02-12T13:01:02.349Z,5.19
2019-02-12T13:03:34.255Z,5.31
2019-02-12T13:06:05.942Z,5.18
2019-02-12T13:08:39.182Z,5.10
2019-02-12T13:11:10.960Z,5.06
2019-02-12T13:13:42.791Z,5.05
2019-02-12T13:16:14.591Z,4.99
2019-02-12T13:18:46.290Z,4.95
2019-02-12T13:21:17.952Z,4.99
2019-02-12T13:23:49.661Z,5.00
2019-02-12T13:26:21.288Z,4.99
2019-02-12T13:28:52.955Z,4.94
2019-02-12T13:31:24.719Z,4.92
2019-02-12T13:33:58.694Z,4.90
2019-02-12T13:36:30.465Z,4.84
2019-02-12T13:39:02.250Z,4.83
2019-02-12T13:41:34.161Z,4.81
2019-02-12T13:44:05.805Z,4.75
2019-02-12T13:46:37.677Z,4.70
2019-02-12T13:49:09.376Z,4.60
2019-02-12T13:51:41.094Z,4.52
2019-02-12T13:54:12.758Z,4.51
2019-02-12T13:56:44.488Z,4.52
2019-02-12T13:59:16.080Z,4.49
2019-02-12T14:01:47.984Z,4.49
2019-02-12T14:04:20.876Z,4.47
2019-02-12T14:06:52.565Z,4.47
2019-02-12T14:09:24.408Z,4.49
2019-02-12T14:11:56.253Z,4.36
2019-02-12T14:14:27.986Z,4.33
2019-02-12T14:16:59.574Z,4.25
2019-02-12T14:19:31.434Z,4.19
2019-02-12T14:22:03.292Z,4.20
2019-02-12T14:24:34.928Z,4.20
2019-02-12T14:27:06.565Z,4.20
2019-02-12T14:29:38.227Z,4.11
2019-02-12T14:32:10.027Z,4.15
2019-02-12T14:34:41.529Z,4.13
2019-02-12T14:37:13.205Z,4.19
2019-02-12T14:39:44.894Z,4.18
2019-02-12T14:42:16.520Z,4.13
2019-02-12T14:44:48.239Z,4.09
2019-02-12T14:47:19.998Z,4.14
2019-02-12T14:49:51.792Z,4.06
2019-02-12T14:52:25.334Z,4.11
2019-02-12T14:54:57.033Z,4.04
2019-02-12T14:57:28.724Z,4.00
2019-02-12T15:00:00.563Z,3.98
2019-02-12T15:02:33.503Z,3.92
2019-02-12T15:05:05.596Z,3.88
2019-02-12T15:07:38.658Z,3.91
2019-02-12T15:10:11.553Z,3.90
2019-02-12T15:12:43.431Z,3.92
2019-02-12T15:15:15.267Z,3.88
2019-02-12T15:17:47.025Z,3.89
2019-02-12T15:20:21.162Z,3.87
2019-02-12T15:22:52.847Z,3.86
2019-02-12T15:25:25.184Z,3.85
2019-02-12T15:27:56.966Z,3.84
2019-02-12T15:30:29.197Z,3.79
2019-02-12T15:33:05.107Z,3.84
2019-02-12T15:35:36.749Z,3.82
2019-02-12T15:38:08.496Z,3.79
2019-02-12T15:40:40.126Z,3.74
2019-02-12T15:43:12.085Z,3.77
2019-02-12T15:45:43.890Z,3.74
2019-02-12T15:48:18.539Z,3.71
2019-02-12T15:50:50.241Z,3.70
2019-02-12T15:53:21.904Z,3.67
2019-02-12T15:55:53.550Z,3.69
2019-02-12T15:58:26.369Z,3.61
2019-02-12T16:00:58.486Z,3.61
2019-02-12T16:03:30.237Z,3.58
2019-02-12T16:06:02.021Z,3.54
2019-02-12T16:08:33.765Z,3.55
2019-02-12T16:11:05.774Z,3.55
2019-02-12T16:13:37.661Z,3.55
2019-02-12T16:16:09.968Z,3.49
2019-02-12T16:18:43.360Z,3.46
2019-02-12T16:21:15.546Z,3.48
2019-02-12T16:23:47.153Z,3.05
2019-02-12T16:26:19.000Z,3.41
2019-02-12T16:28:50.614Z,3.45
2019-02-12T16:31:22.462Z,3.39
2019-02-12T16:33:54.303Z,3.47
2019-02-12T16:36:25.978Z,3.45
2019-02-12T16:38:57.681Z,3.48
2019-02-12T16:41:30.421Z,3.41
2019-02-12T16:44:02.156Z,3.40
2019-02-12T16:46:33.954Z,3.37
2019-02-12T16:49:05.650Z,3.42
2019-02-12T16:51:37.424Z,3.34
2019-02-12T16:54:09.140Z,3.35
2019-02-12T16:56:40.832Z,3.35
2019-02-12T16:59:13.545Z,3.35
2019-02-12T17:01:47.818Z,3.31
2019-02-12T17:04:19.558Z,3.31
2019-02-12T17:06:51.349Z,3.35
2019-02-12T17:09:23.213Z,3.29
2019-02-12T17:11:54.832Z,3.28
2019-02-12T17:14:27.680Z,3.19
2019-02-12T17:17:03.847Z,3.13
2019-02-12T17:19:37.172Z,3.06
2019-02-12T17:22:08.966Z,3.01
2019-02-12T17:24:40.795Z,3.05
2019-02-12T17:27:12.535Z,2.94
2019-02-12T17:29:44.308Z,3.00
2019-02-12T17:32:16.221Z,2.89
2019-02-12T17:34:47.971Z,2.90
2019-02-12T17:37:19.765Z,2.87
2019-02-12T17:39:52.590Z,2.79
2019-02-12T17:42:24.747Z,2.70
2019-02-12T17:44:56.438Z,2.57
2019-02-12T17:47:30.672Z,2.55
2019-02-12T17:50:02.392Z,2.54
2019-02-12T17:52:34.277Z,2.62
2019-02-12T17:55:06.431Z,2.53
2019-02-12T17:57:38.069Z,2.50
2019-02-12T18:00:15.395Z,2.56
2019-02-12T18:02:47.092Z,2.56
2019-02-12T18:05:21.710Z,2.61
2019-02-12T18:07:53.355Z,2.56
2019-02-12T18:10:30.001Z,2.57
2019-02-12T18:13:01.677Z,2.57
2019-02-12T18:15:34.839Z,2.66
2019-02-12T18:18:06.560Z,2.70
2019-02-12T18:20:39.416Z,2.69
2019-02-12T18:23:11.058Z,2.80
2019-02-12T18:25:43.003Z,2.83
2019-02-12T18:28:14.774Z,2.78
2019-02-12T18:30:47.915Z,2.87
2019-02-12T18:33:19.654Z,2.83
2019-02-12T18:35:51.399Z,2.78
2019-02-12T18:38:23.095Z,2.82
2019-02-12T18:40:54.770Z,2.80
2019-02-12T18:43:26.900Z,2.79
2019-02-12T18:45:59.103Z,2.78
2019-02-12T18:48:30.851Z,2.71
2019-02-12T18:51:03.284Z,2.70
2019-02-12T18:53:35.295Z,2.71
2019-02-12T18:56:08.372Z,2.72
2019-02-12T18:58:41.252Z,2.76
2019-02-12T19:01:14.980Z,2.72
2019-02-12T19:03:46.805Z,2.71
2019-02-12T19:06:20.786Z,2.77
2019-02-12T19:08:52.976Z,2.73
2019-02-12T19:11:24.656Z,2.74
2019-02-12T19:14:00.209Z,2.83
2019-02-12T19:16:35.400Z,2.78
2019-02-12T19:19:08.388Z,2.81
2019-02-12T19:21:41.443Z,2.83
2019-02-12T19:24:14.645Z,2.79
2019-02-12T19:26:49.926Z,2.89
2019-02-12T19:29:21.155Z,2.93
2019-02-12T19:31:59.110Z,2.94
2019-02-12T19:34:26.637Z,2.94
2019-02-12T19:36:58.519Z,2.90
2019-02-12T19:39:30.203Z,2.88
2019-02-12T19:42:01.919Z,2.95
2019-02-12T19:44:35.074Z,2.92
2019-02-12T19:47:06.827Z,2.86
2019-02-12T19:49:39.605Z,2.93
2019-02-12T19:52:14.083Z,3.05
2019-02-12T19:54:45.862Z,2.98
2019-02-12T19:57:19.147Z,3.03
2019-02-12T19:59:51.063Z,3.02
2019-02-12T20:02:23.319Z,3.09
2019-02-12T20:04:55.424Z,3.13
2019-02-12T20:07:27.035Z,3.16
2019-02-12T20:10:00.599Z,3.11
2019-02-12T20:12:32.361Z,3.13
2019-02-12T20:15:04.052Z,3.12
2019-02-12T20:17:36.340Z,3.17
2019-02-12T20:20:09.015Z,3.02
2019-02-12T20:22:41.112Z,3.04
2019-02-12T20:25:12.896Z,3.12
2019-02-12T20:27:46.926Z,3.01
2019-02-12T20:30:20.125Z,2.90
2019-02-12T20:32:51.983Z,3.01
2019-02-12T20:35:25.289Z,3.03
2019-02-12T20:37:57.155Z,3.17
2019-02-12T20:40:36.582Z,3.14
2019-02-12T20:43:09.663Z,3.17
2019-02-12T20:45:41.808Z,3.17
2019-02-12T20:48:13.556Z,3.22
2019-02-12T20:50:45.407Z,3.28
2019-02-12T20:53:20.022Z,3.25
2019-02-12T20:55:54.609Z,3.14
2019-02-12T20:58:25.907Z,3.14
2019-02-12T21:00:58.753Z,3.17
2019-02-12T21:03:32.000Z,3.02
2019-02-12T21:06:06.077Z,2.94
2019-02-12T21:08:38.702Z,2.85
2019-02-12T21:11:14.089Z,2.87
2019-02-12T21:13:46.011Z,2.84
2019-02-12T21:16:18.226Z,2.92
2019-02-12T21:18:50.107Z,2.90
2019-02-12T21:21:21.758Z,2.91
2019-02-12T21:23:53.425Z,3.00
2019-02-12T21:26:26.853Z,2.99
2019-02-12T21:28:58.505Z,2.98
2019-02-12T21:31:30.197Z,3.02
2019-02-12T21:34:01.835Z,3.08
2019-02-12T21:36:33.571Z,3.01
2019-02-12T21:39:06.314Z,2.99
2019-02-12T21:41:37.949Z,3.06
2019-02-12T21:44:09.563Z,2.98
2019-02-12T21:46:41.085Z,3.07
2019-02-12T21:49:14.159Z,3.11
2019-02-12T21:51:48.123Z,3.12
2019-02-12T21:54:19.983Z,3.08
2019-02-12T21:56:51.640Z,2.96
2019-02-12T21:59:23.289Z,2.84
2019-02-12T22:01:54.932Z,2.89
2019-02-12T22:04:26.648Z,2.81
2019-02-12T22:06:58.381Z,2.82
2019-02-12T22:09:31.384Z,2.78
2019-02-12T22:12:03.111Z,2.78
2019-02-12T22:14:37.205Z,2.83
2019-02-12T22:17:08.831Z,2.85
2019-02-12T22:19:40.451Z,2.89
2019-02-12T22:22:12.225Z,2.83
2019-02-12T22:24:43.701Z,2.84
2019-02-12T22:27:15.305Z,2.77
2019-02-12T22:29:46.802Z,2.72
2019-02-12T22:32:18.698Z,2.72
2019-02-12T22:34:52.998Z,2.57
2019-02-12T22:37:24.645Z,2.62
2019-02-12T22:39:56.160Z,2.56
2019-02-12T22:42:31.023Z,2.52
2019-02-12T22:45:02.596Z,2.49
2019-02-12T22:47:34.176Z,2.45
2019-02-12T22:50:06.042Z,2.34
2019-02-12T22:52:37.612Z,2.29
2019-02-12T22:55:09.413Z,2.10
2019-02-12T22:57:48.885Z,2.06
2019-02-12T23:00:24.445Z,1.99
2019-02-12T23:02:57.637Z,1.92
2019-02-12T23:05:29.262Z,1.92
2019-02-12T23:08:00.827Z,1.89
2019-02-12T23:10:35.383Z,1.78
2019-02-12T23:13:07.047Z,1.76
2019-02-12T23:15:38.798Z,1.59
2019-02-12T23:18:10.473Z,1.53
2019-02-12T23:20:42.126Z,1.62
2019-02-12T23:23:13.795Z,1.59
2019-02-12T23:25:45.729Z,1.56
2019-02-12T23:28:17.352Z,1.53
2019-02-12T23:30:48.881Z,1.58
2019-02-12T23:33:20.516Z,1.49
2019-02-12T23:35:52.179Z,1.49
2019-02-12T23:38:23.876Z,1.41
2019-02-12T23:40:55.396Z,1.30
2019-02-12T23:43:27.026Z,1.17
2019-02-12T23:45:58.752Z,1.23
2019-02-12T23:48:30.378Z,1.19
2019-02-12T23:51:01.886Z,1.16
2019-02-12T23:53:33.552Z,1.18
2019-02-12T23:56:05.172Z,1.18
2019-02-12T23:58:36.864Z,1.17
